Time;durP1;ratioP1;P1;durP2;ratioP2;P2;SDS_P1;SDS_P2;PMS_P1;PMS_P2;Temp;Humidity;BMP_temperature;BMP_pressure;BME280_temperature;BME280_humidity;BME280_pressure;Samples;Min_cycle;Max_cycle;Signal;HPM_P1;HPM_P2
2022/07/22 00:00:49;;;;;;;11.17;4.10;;;;;;;22.59;59.14;99972.38;4225936;28;20650;-74
2022/07/22 00:03:15;;;;;;;8.73;3.63;;;;;;;22.50;59.77;99969.22;4198213;28;20308;-74
2022/07/22 00:05:42;;;;;;;9.97;4.07;;;;;;;22.49;59.60;99977.56;4202698;28;20237;-74
2022/07/22 00:08:09;;;;;;;11.83;4.00;;;;;;;22.46;59.73;99969.91;4213248;28;20231;-74
2022/07/22 00:10:35;;;;;;;10.97;4.40;;;;;;;22.37;60.06;99983.00;4216549;28;20248;-74
2022/07/22 00:13:02;;;;;;;12.07;4.03;;;;;;;22.46;59.11;99970.75;4198881;28;20237;-75
2022/07/22 00:15:29;;;;;;;12.90;4.50;;;;;;;22.45;59.66;99973.66;4204028;28;22152;-74
2022/07/22 00:17:56;;;;;;;8.80;3.90;;;;;;;22.59;58.16;99975.09;4228481;28;22987;-74
2022/07/22 00:20:23;;;;;;;11.38;3.70;;;;;;;22.68;57.38;99973.69;4209961;28;21404;-75
2022/07/22 00:22:49;;;;;;;10.30;4.07;;;;;;;22.75;56.98;99973.56;4191156;28;20259;-74
2022/07/22 00:25:16;;;;;;;12.63;3.95;;;;;;;22.74;57.13;99972.75;4180275;28;20272;-74
2022/07/22 00:27:42;;;;;;;11.32;3.90;;;;;;;22.65;57.41;99968.75;4203905;28;21789;-73
2022/07/22 00:30:09;;;;;;;15.27;4.35;;;;;;;22.75;57.01;99968.97;4194196;28;21327;-73
2022/07/22 00:32:36;;;;;;;8.33;3.83;;;;;;;22.73;56.87;99968.41;4205755;28;20310;-74
2022/07/22 00:35:03;;;;;;;9.47;3.73;;;;;;;22.67;56.93;99969.34;4214335;28;20550;-74
2022/07/22 00:37:30;;;;;;;7.93;3.80;;;;;;;22.81;56.14;99971.81;4215727;28;20699;-74
2022/07/22 00:39:56;;;;;;;7.90;3.87;;;;;;;22.65;56.55;99962.50;4183504;28;20240;-75
2022/07/22 00:42:23;;;;;;;8.13;3.83;;;;;;;22.75;56.02;99960.00;4210287;28;20241;-75
2022/07/22 00:44:50;;;;;;;8.70;3.40;;;;;;;22.73;55.99;99968.41;4203404;28;20287;-74
2022/07/22 00:47:17;;;;;;;7.70;4.07;;;;;;;22.66;56.43;99962.25;4191524;28;20301;-74
2022/07/22 00:49:44;;;;;;;11.37;4.00;;;;;;;22.64;56.66;99961.69;4205938;28;20241;-75
2022/07/22 00:52:10;;;;;;;9.32;3.58;;;;;;;22.65;56.57;99970.63;4204374;28;25535;-74
2022/07/22 00:54:39;;;;;;;8.33;3.73;;;;;;;22.63;56.78;99976.28;4199502;28;20290;-74
2022/07/22 00:57:05;;;;;;;10.47;3.80;;;;;;;22.57;57.11;99966.41;4213825;28;20244;-74
2022/07/22 00:59:32;;;;;;;11.90;4.53;;;;;;;22.48;57.21;99962.38;4203703;28;20382;-74
2022/07/22 01:01:58;;;;;;;15.23;4.30;;;;;;;22.39;57.71;99966.50;4201363;28;20233;-73
2022/07/22 01:04:25;;;;;;;11.83;4.27;;;;;;;22.39;57.56;99963.78;4207205;28;20239;-75
2022/07/22 01:06:52;;;;;;;7.53;4.30;;;;;;;22.34;58.01;99959.88;4187142;28;20320;-75
2022/07/22 01:09:18;;;;;;;12.17;4.23;;;;;;;22.34;57.93;99962.59;4204003;28;20232;-74
2022/07/22 01:11:45;;;;;;;9.97;4.30;;;;;;;22.30;57.75;99958.69;4198950;28;22059;-75
2022/07/22 01:14:12;;;;;;;8.47;4.10;;;;;;;22.29;57.57;99948.91;4196266;28;20237;-74
2022/07/22 01:16:39;;;;;;;6.90;3.97;;;;;;;22.38;57.20;99946.66;4194872;28;21753;-73
2022/07/22 01:19:09;;;;;;;8.70;4.10;;;;;;;22.33;57.15;99950.09;4211437;28;20229;-73
2022/07/22 01:21:36;;;;;;;10.67;4.60;;;;;;;22.40;56.71;99941.84;4201116;28;20232;-74
2022/07/22 01:24:04;;;;;;;8.63;3.70;;;;;;;22.44;56.13;99950.34;4198365;28;20426;-74
2022/07/22 01:26:30;;;;;;;6.40;3.67;;;;;;;22.51;55.96;99945.63;4200974;28;20241;-74
2022/07/22 01:28:57;;;;;;;9.03;3.57;;;;;;;22.56;55.69;99943.03;4217455;28;20283;-74
2022/07/22 01:31:24;;;;;;;10.20;4.03;;;;;;;22.62;54.98;99944.81;4213246;28;20252;-74
2022/07/22 01:33:51;;;;;;;11.47;4.00;;;;;;;22.71;54.77;99945.25;4216963;28;20288;-75
2022/07/22 01:36:17;;;;;;;9.73;4.00;;;;;;;22.70;55.00;99938.19;4200117;28;20237;-74
2022/07/22 01:38:44;;;;;;;7.00;3.43;;;;;;;22.64;54.93;99939.97;4209824;28;20303;-74
2022/07/22 01:41:11;;;;;;;8.77;4.17;;;;;;;22.68;54.61;99941.13;4201259;28;20247;-75
2022/07/22 01:43:38;;;;;;;13.17;3.80;;;;;;;22.67;54.66;99947.63;4202747;28;22059;-74
2022/07/22 01:46:04;;;;;;;10.80;3.90;;;;;;;22.64;54.65;99945.41;4180859;28;20249;-74
2022/07/22 01:48:32;;;;;;;9.80;3.80;;;;;;;22.57;55.06;99946.56;4203356;28;20358;-74
2022/07/22 01:50:59;;;;;;;13.30;4.00;;;;;;;22.51;55.49;99951.06;4182405;28;20248;-74
2022/07/22 01:53:25;;;;;;;6.43;3.87;;;;;;;22.44;55.64;99955.78;4191777;28;20389;-74
2022/07/22 01:55:52;;;;;;;6.90;3.67;;;;;;;22.31;56.79;99963.06;4203802;28;21571;-74
2022/07/22 01:58:19;;;;;;;9.23;3.73;;;;;;;22.15;58.13;99961.00;4205267;28;20240;-75
2022/07/22 02:00:48;;;;;;;8.53;4.10;;;;;;;22.22;57.85;99958.19;4208056;28;20524;-76
2022/07/22 02:03:14;;;;;;;8.03;3.90;;;;;;;22.17;57.83;99977.84;4206174;28;20352;-74
2022/07/22 02:05:41;;;;;;;6.30;3.87;;;;;;;22.14;58.07;99967.47;4180548;28;20347;-74
2022/07/22 02:08:09;;;;;;;15.03;4.47;;;;;;;22.05;58.55;99964.25;4208534;28;20496;-73
2022/07/22 02:10:36;;;;;;;10.70;4.40;;;;;;;22.07;58.57;99956.72;4207101;28;20401;-76
2022/07/22 02:13:03;;;;;;;9.97;4.40;;;;;;;22.08;58.24;99958.41;4217093;28;20284;-74
2022/07/22 02:15:30;;;;;;;7.03;4.03;;;;;;;21.92;59.47;99965.31;4186559;28;20259;-75
2022/07/22 02:17:57;;;;;;;9.00;4.37;;;;;;;21.78;60.77;99968.44;4205712;28;22921;-74
2022/07/22 02:20:23;;;;;;;12.23;4.50;;;;;;;21.76;60.01;99979.50;4207280;28;20753;-75
2022/07/22 02:22:50;;;;;;;11.40;4.63;;;;;;;21.46;62.40;99961.34;4207542;28;20302;-74
2022/07/22 02:25:17;;;;;;;13.37;4.83;;;;;;;21.33;62.91;99977.75;4201042;28;20241;-74
2022/07/22 02:27:43;;;;;;;11.07;5.13;;;;;;;21.04;64.39;99987.44;4208095;28;20237;-74
2022/07/22 02:30:10;;;;;;;8.47;4.80;;;;;;;20.91;64.85;99969.47;4195338;28;20232;-75
2022/07/22 02:32:37;;;;;;;12.47;5.20;;;;;;;20.54;66.85;99973.97;4228406;28;20228;-74
2022/07/22 02:35:04;;;;;;;10.50;4.90;;;;;;;20.42;67.44;99938.72;4217819;28;20708;-73
2022/07/22 02:37:30;;;;;;;13.17;5.07;;;;;;;20.27;68.39;99968.78;4204955;28;22157;-73
2022/07/22 02:39:57;;;;;;;13.73;4.70;;;;;;;20.13;69.68;99984.25;4200253;28;21322;-74
2022/07/22 02:42:23;;;;;;;12.53;5.87;;;;;;;19.78;71.21;99982.00;4217876;28;22155;-73
2022/07/22 02:44:50;;;;;;;14.77;4.97;;;;;;;19.87;71.06;99992.53;4222486;28;20221;-75
2022/07/22 02:47:17;;;;;;;12.50;5.20;;;;;;;19.72;72.05;99977.47;4191577;28;21821;-74
2022/07/22 02:49:43;;;;;;;10.43;4.87;;;;;;;19.74;72.08;99969.97;4217978;28;20228;-74
2022/07/22 02:52:10;;;;;;;10.17;4.93;;;;;;;19.71;71.99;99980.38;4209115;28;20300;-74
2022/07/22 02:54:37;;;;;;;15.87;5.30;;;;;;;19.64;72.47;99972.25;4211013;28;24450;-73
2022/07/22 02:57:03;;;;;;;12.93;5.30;;;;;;;19.53;73.44;99968.41;4211956;28;20844;-74
2022/07/22 02:59:30;;;;;;;8.43;4.70;;;;;;;19.48;73.55;99972.75;4199625;28;20248;-74
2022/07/22 03:01:56;;;;;;;12.50;4.83;;;;;;;19.53;73.70;99973.78;4203937;28;20246;-75
2022/07/22 03:04:23;;;;;;;11.67;5.40;;;;;;;19.58;73.76;99965.88;4189614;28;21443;-73
2022/07/22 03:06:50;;;;;;;12.57;5.47;;;;;;;19.65;74.12;99959.63;4204537;28;21800;-74
2022/07/22 03:09:16;;;;;;;13.97;5.43;;;;;;;19.60;74.47;99960.28;4214605;28;21724;-74
2022/07/22 03:11:44;;;;;;;16.23;5.83;;;;;;;19.62;74.76;99958.19;4214843;28;20292;-74
2022/07/22 03:14:11;;;;;;;9.77;5.00;;;;;;;19.70;74.06;99960.66;4212683;28;25110;-73
2022/07/22 03:16:38;;;;;;;8.97;4.90;;;;;;;19.72;74.10;99960.44;4200138;28;21424;-74
2022/07/22 03:19:05;;;;;;;11.70;5.37;;;;;;;19.70;74.72;99960.66;4232641;28;23414;-74
2022/07/22 03:21:32;;;;;;;14.57;5.77;;;;;;;19.78;74.37;99954.16;4199455;28;20310;-74
2022/07/22 03:24:00;;;;;;;15.20;5.97;;;;;;;19.88;72.94;99945.56;4199673;28;20228;-73
2022/07/22 03:26:26;;;;;;;12.17;5.73;;;;;;;19.98;72.61;99959.44;4231731;28;20586;-74
2022/07/22 03:28:53;;;;;;;14.20;5.13;;;;;;;20.01;73.01;99953.59;4215214;28;21166;-74
2022/07/22 03:31:20;;;;;;;10.53;5.30;;;;;;;20.03;71.94;99949.63;4205772;28;21389;-73
2022/07/22 03:33:47;;;;;;;11.43;5.23;;;;;;;20.04;71.10;99953.16;4223253;28;20245;-75
2022/07/22 03:36:13;;;;;;;11.60;4.80;;;;;;;20.14;70.66;99964.31;4207708;28;20248;-73
2022/07/22 03:38:40;;;;;;;9.23;5.03;;;;;;;20.29;69.47;99958.56;4202728;28;21740;-73
2022/07/22 03:41:06;;;;;;;9.80;4.80;;;;;;;20.36;70.94;99966.63;4202336;28;20426;-75
2022/07/22 03:43:34;;;;;;;18.97;5.20;;;;;;;20.33;70.49;99967.91;4217014;28;23180;-74
2022/07/22 03:46:00;;;;;;;14.67;5.10;;;;;;;20.50;70.18;99961.94;4202864;28;20251;-74
2022/07/22 03:48:27;;;;;;;12.57;5.53;;;;;;;20.52;70.25;99968.78;4206813;28;20499;-73
2022/07/22 03:50:54;;;;;;;9.07;4.83;;;;;;;20.57;70.54;99968.97;4222157;28;25842;-74
2022/07/22 03:53:20;;;;;;;10.53;5.57;;;;;;;20.64;70.19;99979.72;4212184;28;20296;-73
2022/07/22 03:55:47;;;;;;;12.27;5.30;;;;;;;20.68;70.99;99990.94;4205238;28;20356;-74
2022/07/22 03:58:16;;;;;;;9.37;4.97;;;;;;;20.78;70.52;99975.84;4203351;28;20258;-75
2022/07/22 04:00:42;;;;;;;10.03;4.90;;;;;;;20.89;69.64;99982.41;4209448;28;20719;-74
2022/07/22 04:03:09;;;;;;;10.13;4.90;;;;;;;20.94;70.03;99982.53;4203997;28;20685;-73
2022/07/22 04:05:35;;;;;;;14.80;5.73;;;;;;;20.98;70.08;99980.25;4210499;28;20233;-74
2022/07/22 04:08:03;;;;;;;15.00;5.10;;;;;;;21.05;70.08;99984.50;4202299;28;20300;-73
2022/07/22 04:10:29;;;;;;;11.87;4.80;;;;;;;21.23;68.23;99977.44;4219454;28;20244;-74
2022/07/22 04:12:56;;;;;;;13.43;5.03;;;;;;;21.30;68.69;99991.72;4203405;28;20238;-74
2022/07/22 04:15:22;;;;;;;10.70;4.43;;;;;;;21.42;68.23;99989.97;4223486;28;20548;-73
2022/07/22 04:17:51;;;;;;;11.07;5.60;;;;;;;21.56;66.67;99998.72;4191413;28;20239;-74
2022/07/22 04:20:17;;;;;;;11.27;4.93;;;;;;;21.88;62.17;99991.19;4207670;28;20245;-74
2022/07/22 04:22:44;;;;;;;12.90;5.20;;;;;;;21.85;63.32;99988.13;4207469;28;21324;-77
2022/07/22 04:25:10;;;;;;;9.43;5.00;;;;;;;21.93;62.18;99982.38;4207482;28;20239;-74
2022/07/22 04:27:37;;;;;;;13.17;5.10;;;;;;;22.03;61.57;99981.81;4201749;28;22095;-75
2022/07/22 04:30:04;;;;;;;10.00;5.13;;;;;;;22.19;61.00;99981.16;4207910;28;20233;-73
2022/07/22 04:32:31;;;;;;;10.50;4.97;;;;;;;22.40;58.77;99985.22;4208158;28;20237;-74
2022/07/22 04:34:57;;;;;;;10.50;4.70;;;;;;;22.42;59.18;99979.56;4200604;28;20301;-74
2022/07/22 04:37:24;;;;;;;13.47;5.53;;;;;;;22.44;59.67;99982.88;4202939;28;20241;-74
2022/07/22 04:39:51;;;;;;;13.77;5.00;;;;;;;22.56;58.31;99975.56;4197274;28;20242;-74
2022/07/22 04:42:18;;;;;;;11.43;4.97;;;;;;;22.70;58.50;99974.28;4218978;28;20268;-73
2022/07/22 04:44:44;;;;;;;16.40;5.47;;;;;;;22.82;57.94;99976.16;4197925;28;23551;-73
2022/07/22 04:47:11;;;;;;;13.83;4.93;;;;;;;23.02;55.07;99986.69;4206937;28;21915;-73
2022/07/22 04:49:38;;;;;;;18.20;4.83;;;;;;;23.14;54.35;99977.44;4185756;28;20914;-74
2022/07/22 04:52:05;;;;;;;16.07;4.77;;;;;;;23.25;53.75;99972.22;4192266;28;20643;-75
2022/07/22 04:54:33;;;;;;;13.63;5.27;;;;;;;23.18;55.47;99978.63;4208410;28;20945;-75
2022/07/22 04:57:00;;;;;;;16.57;4.80;;;;;;;23.46;52.97;99985.19;4200151;28;21534;-74
2022/07/22 04:59:26;;;;;;;16.10;5.57;;;;;;;23.49;52.49;99973.81;4195860;28;25865;-75
2022/07/22 05:01:53;;;;;;;16.90;5.30;;;;;;;23.43;52.76;99976.66;4206898;28;20530;-76
2022/07/22 05:04:20;;;;;;;18.03;4.90;;;;;;;23.64;52.34;99978.72;4194029;28;20397;-74
2022/07/22 05:06:46;;;;;;;10.68;4.32;;;;;;;23.66;52.62;99973.06;4198832;28;20306;-74
2022/07/22 05:09:13;;;;;;;13.45;4.25;;;;;;;23.80;51.46;99974.44;4198172;28;20631;-74
2022/07/22 05:11:40;;;;;;;17.30;5.23;;;;;;;23.93;51.46;99979.56;4174731;28;20326;-74
2022/07/22 05:14:06;;;;;;;13.82;4.90;;;;;;;24.08;50.43;99979.00;4199529;28;21887;-74
2022/07/22 05:16:37;;;;;;;21.87;5.60;;;;;;;24.16;50.25;99978.63;4195447;28;20435;-74
2022/07/22 05:19:05;;;;;;;17.00;5.10;;;;;;;24.31;49.60;99979.94;4193256;28;20644;-74
2022/07/22 05:21:32;;;;;;;22.07;4.90;;;;;;;24.31;49.95;99979.94;4210578;28;20233;-75
2022/07/22 05:23:58;;;;;;;15.97;4.77;;;;;;;24.38;49.51;99981.44;4201809;28;20240;-74
2022/07/22 05:26:28;;;;;;;14.10;4.97;;;;;;;24.45;50.06;99975.81;4191616;28;20236;-74
2022/07/22 05:28:55;;;;;;;17.30;5.33;;;;;;;24.71;48.37;99984.41;4204507;28;20236;-74
2022/07/22 05:31:22;;;;;;;26.50;5.30;;;;;;;24.73;48.50;99980.38;4228582;28;20260;-75
2022/07/22 05:33:49;;;;;;;26.00;4.60;;;;;;;24.94;47.38;99978.75;4215077;28;20540;-74
2022/07/22 05:36:16;;;;;;;15.70;4.63;;;;;;;25.15;46.85;99985.31;4209637;28;20374;-73
2022/07/22 05:38:42;;;;;;;24.00;5.07;;;;;;;25.34;45.84;99990.47;4240732;28;20319;-75
2022/07/22 05:41:09;;;;;;;25.97;5.10;;;;;;;25.66;45.13;99994.13;4220558;28;20302;-74
2022/07/22 05:43:35;;;;;;;19.52;4.70;;;;;;;26.02;43.36;99999.97;4203898;28;20233;-74
2022/07/22 05:46:03;;;;;;;20.85;5.10;;;;;;;26.40;42.56;100006.31;4199182;28;23073;-74
2022/07/22 05:48:29;;;;;;;15.33;4.43;;;;;;;26.84;41.38;100003.38;4209494;28;20415;-74
2022/07/22 05:50:56;;;;;;;26.08;4.40;;;;;;;27.20;40.07;99992.69;4197143;28;20235;-75
2022/07/22 05:53:23;;;;;;;17.00;4.60;;;;;;;27.77;38.83;100002.75;4218960;28;20241;-73
2022/07/22 05:55:50;;;;;;;27.48;5.10;;;;;;;28.34;37.46;100003.66;4204218;28;20228;-74
2022/07/22 05:58:16;;;;;;;19.27;4.88;;;;;;;28.88;36.33;100013.22;4201912;28;20290;-73
2022/07/22 06:00:43;;;;;;;18.05;4.40;;;;;;;29.37;34.76;100019.97;4206585;28;20240;-74
2022/07/22 06:03:09;;;;;;;20.67;4.65;;;;;;;30.00;33.59;100022.13;4221221;28;20245;-75
2022/07/22 06:05:43;;;;;;;22.08;4.55;;;;;;;30.48;32.26;100030.56;4202709;28;20239;-74
2022/07/22 06:08:10;;;;;;;24.88;4.25;;;;;;;31.13;31.38;100030.25;4221093;28;20874;-74
2022/07/22 06:10:37;;;;;;;23.90;5.50;;;;;;;31.57;30.75;100029.22;4193162;28;26197;-74
2022/07/22 06:13:03;;;;;;;25.25;4.97;;;;;;;32.08;30.32;100035.97;4209418;28;20240;-72
2022/07/22 06:15:30;;;;;;;18.65;3.78;;;;;;;32.86;28.94;100041.88;4199830;28;22522;-73
2022/07/22 06:17:56;;;;;;;23.33;4.68;;;;;;;33.09;28.42;100046.41;4195801;28;22048;-73
2022/07/22 06:20:23;;;;;;;24.95;4.38;;;;;;;33.30;27.69;100046.03;4204603;28;20284;-73
2022/07/22 06:22:49;;;;;;;20.23;4.63;;;;;;;33.94;26.89;100054.34;4196403;28;20244;-72
2022/07/22 06:25:16;;;;;;;22.30;4.47;;;;;;;33.89;26.93;100049.75;4203790;28;20236;-74
2022/07/22 06:28:03;;;;;;;17.98;4.43;;;;;;;33.95;27.04;100051.28;4203837;28;20248;-73
2022/07/22 06:30:29;;;;;;;21.42;4.18;;;;;;;34.74;26.48;100065.72;4193148;28;22455;-75
2022/07/22 06:32:56;;;;;;;14.15;4.82;;;;;;;35.33;25.46;100071.88;4205560;28;20243;-74
2022/07/22 06:35:24;;;;;;;14.52;3.90;;;;;;;35.50;25.47;100071.97;4214323;28;21046;-72
2022/07/22 06:37:53;;;;;;;17.63;4.32;;;;;;;35.84;25.08;100075.16;4197640;28;20342;-74
2022/07/22 06:40:31;;;;;;;10.88;3.90;;;;;;;36.47;24.44;100070.13;4181323;28;22959;-74
2022/07/22 06:42:58;;;;;;;15.32;4.22;;;;;;;36.84;25.05;100073.38;4192108;28;20291;-74
2022/07/22 06:45:25;;;;;;;10.15;4.25;;;;;;;36.85;24.14;100080.53;4209570;28;21193;-74
2022/07/22 06:47:51;;;;;;;14.07;4.60;;;;;;;35.87;24.68;100080.03;4205870;28;22964;-74
2022/07/22 06:50:18;;;;;;;13.10;3.95;;;;;;;34.79;26.04;100074.69;4206105;28;20242;-74
2022/07/22 06:52:45;;;;;;;17.33;4.25;;;;;;;34.17;27.50;100061.56;4186870;28;25402;-74
2022/07/22 06:55:12;;;;;;;15.18;3.80;;;;;;;34.44;27.38;100066.16;4206539;28;20232;-74
2022/07/22 06:57:38;;;;;;;10.23;3.53;;;;;;;35.25;26.54;100079.03;4248866;28;21095;-74
2022/07/22 07:00:09;;;;;;;10.82;3.65;;;;;;;36.38;24.80;100083.19;4209952;28;21776;-75
2022/07/22 07:02:36;;;;;;;9.88;3.92;;;;;;;37.39;23.18;100081.69;4225251;28;22833;-75
2022/07/22 07:05:03;;;;;;;10.52;4.20;;;;;;;38.41;22.21;100082.47;4189174;28;21177;-76
2022/07/22 07:07:30;;;;;;;9.88;4.07;;;;;;;38.29;21.45;100079.63;4200480;28;23677;-75
2022/07/22 07:09:58;;;;;;;10.48;3.80;;;;;;;38.34;20.91;100082.19;4224659;28;20602;-74
2022/07/22 07:12:25;;;;;;;13.18;4.28;;;;;;;38.67;20.46;100075.06;4201398;28;21777;-73
2022/07/22 07:14:52;;;;;;;11.77;4.10;;;;;;;38.97;20.21;100084.88;4220304;28;20606;-74
2022/07/22 07:17:39;;;;;;;12.10;4.40;;;;;;;38.31;20.34;100077.34;4217919;28;20310;-74
2022/07/22 07:20:06;;;;;;;13.35;4.22;;;;;;;38.37;21.64;100075.16;4216815;28;22103;-75
2022/07/22 07:22:33;;;;;;;11.93;4.03;;;;;;;37.54;23.18;100068.41;4215275;28;20319;-74
2022/07/22 07:25:04;;;;;;;16.42;4.75;;;;;;;38.45;22.54;100074.25;4218580;28;20379;-75
2022/07/22 07:27:48;;;;;;;13.30;4.57;;;;;;;37.72;22.90;100069.91;4200792;28;21251;-73
2022/07/22 07:30:15;;;;;;;9.38;4.68;;;;;;;36.83;23.42;100061.47;4243866;28;20292;-74
2022/07/22 07:32:42;;;;;;;14.85;4.90;;;;;;;36.08;24.27;100058.06;4206397;28;20236;-74
2022/07/22 07:35:09;;;;;;;15.10;4.60;;;;;;;35.99;24.32;100058.06;4207578;28;20232;-76
2022/07/22 07:37:36;;;;;;;10.65;4.70;;;;;;;35.97;25.11;100062.31;4199822;28;21506;-74
2022/07/22 07:40:04;;;;;;;10.30;4.47;;;;;;;34.83;27.28;100050.81;4206991;28;20233;-74
2022/07/22 07:42:31;;;;;;;12.88;5.07;;;;;;;34.15;28.12;100049.19;4199965;28;20240;-75
2022/07/22 07:44:58;;;;;;;12.13;5.25;;;;;;;33.56;28.69;100036.09;4197143;28;20386;-75
2022/07/22 07:47:24;;;;;;;10.38;5.30;;;;;;;32.93;30.38;100034.81;4219489;28;21061;-74
2022/07/22 07:49:51;;;;;;;13.73;6.22;;;;;;;32.70;30.28;100031.09;4204693;28;25923;-75
2022/07/22 07:52:18;;;;;;;18.02;6.10;;;;;;;32.82;31.17;100027.88;4221698;28;21131;-75
2022/07/22 07:54:46;;;;;;;14.55;6.50;;;;;;;32.47;31.97;100018.25;4222846;28;20268;-73
2022/07/22 07:57:32;;;;;;;16.65;6.32;;;;;;;32.80;30.89;100024.59;4187196;28;20236;-76
2022/07/22 08:00:00;;;;;;;15.90;6.30;;;;;;;32.36;31.61;100028.66;4206121;28;20252;-74
2022/07/22 08:02:27;;;;;;;15.20;6.28;;;;;;;32.30;32.15;100019.63;4216009;28;20336;-74
2022/07/22 08:04:54;;;;;;;16.38;7.00;;;;;;;32.31;32.38;100018.53;4204383;28;20240;-74
2022/07/22 08:07:25;;;;;;;13.23;6.50;;;;;;;32.56;31.60;100024.75;4218880;28;20237;-74
2022/07/22 08:09:52;;;;;;;17.45;7.25;;;;;;;32.28;32.63;100016.34;4187690;28;25423;-74
2022/07/22 08:12:39;;;;;;;20.23;7.22;;;;;;;31.80;33.81;100010.22;4215494;28;25106;-74
2022/07/22 08:15:07;;;;;;;19.58;7.75;;;;;;;31.55;34.40;100015.75;4199952;28;22451;-75
2022/07/22 08:17:34;;;;;;;23.20;8.23;;;;;;;31.05;35.37;100014.41;4196768;28;20301;-74
2022/07/22 08:20:04;;;;;;;15.20;7.68;;;;;;;30.81;36.12;100022.59;4197855;28;20236;-74
2022/07/22 08:22:30;;;;;;;14.68;7.95;;;;;;;31.23;35.50;100019.13;4211200;28;20294;-74
2022/07/22 08:24:57;;;;;;;17.58;8.18;;;;;;;31.14;36.23;100009.91;4213530;28;20674;-75
2022/07/22 08:27:24;;;;;;;16.75;7.75;;;;;;;31.38;35.83;100009.91;4226260;28;26040;-75
2022/07/22 08:29:50;;;;;;;21.25;8.88;;;;;;;31.44;35.15;100013.41;4202181;28;20411;-75
2022/07/22 08:32:17;;;;;;;14.10;8.23;;;;;;;31.52;36.38;100005.34;4210820;28;20261;-76
2022/07/22 08:34:44;;;;;;;18.73;8.73;;;;;;;31.45;35.34;100007.63;4209463;28;20233;-75
2022/07/22 08:37:10;;;;;;;14.57;8.52;;;;;;;31.36;35.13;100000.31;4202927;28;20283;-74
2022/07/22 08:39:37;;;;;;;20.27;9.13;;;;;;;31.00;35.96;99997.97;4211710;28;22475;-75
2022/07/22 08:42:04;;;;;;;25.55;9.40;;;;;;;31.32;36.24;100002.81;4210332;28;20237;-73
2022/07/22 08:44:32;;;;;;;13.75;8.10;;;;;;;31.45;35.89;99999.38;4216608;28;20267;-74
2022/07/22 08:47:00;;;;;;;20.85;9.43;;;;;;;31.13;37.14;100003.56;4219668;28;21208;-73
2022/07/22 08:49:46;;;;;;;21.08;8.43;;;;;;;31.11;38.01;99994.00;4214837;28;21213;-75
2022/07/22 08:52:13;;;;;;;16.88;9.05;;;;;;;30.92;37.72;99992.00;4222322;28;21560;-73
2022/07/22 08:54:40;;;;;;;18.00;9.25;;;;;;;30.76;38.73;99993.25;4202031;28;20877;-75
2022/07/22 08:57:07;;;;;;;23.85;9.65;;;;;;;30.79;37.71;99991.84;4206244;28;20239;-73
2022/07/22 08:59:51;;;;;;;15.13;8.70;;;;;;;30.63;37.75;99996.69;4215279;28;20475;-74
2022/07/22 09:02:19;;;;;;;20.23;9.63;;;;;;;30.58;37.71;99991.22;4221697;28;20940;-75
2022/07/22 09:05:02;;;;;;;16.40;9.50;;;;;;;30.46;39.19;99991.59;4194616;28;21031;-74
2022/07/22 09:07:49;;;;;;;19.10;9.55;;;;;;;30.71;39.68;99994.09;4212053;28;20571;-75
2022/07/22 09:10:18;;;;;;;17.27;9.32;;;;;;;31.04;38.62;99999.84;4225512;28;20240;-75
2022/07/22 09:12:57;;;;;;;20.15;9.60;;;;;;;30.42;39.68;99987.81;4203155;28;20466;-75
2022/07/22 09:15:28;;;;;;;22.60;9.43;;;;;;;30.18;40.14;99999.50;4216454;28;20237;-74
2022/07/22 09:17:55;;;;;;;17.83;8.20;;;;;;;30.18;40.62;99996.75;4198879;28;21124;-74
2022/07/22 09:20:29;;;;;;;21.10;9.05;;;;;;;30.63;39.48;100000.25;4197690;28;20235;-75
2022/07/22 09:22:56;;;;;;;16.02;9.45;;;;;;;30.53;39.71;100000.31;4204686;28;20237;-75
2022/07/22 09:25:33;;;;;;;21.65;9.25;;;;;;;30.48;41.08;99994.88;4214621;28;21478;-73
2022/07/22 09:28:05;;;;;;;19.85;9.65;;;;;;;30.67;39.21;99998.56;4200908;28;20240;-76
2022/07/22 09:30:45;;;;;;;22.73;9.43;;;;;;;30.91;39.99;100001.38;4207067;28;20338;-75
2022/07/22 09:33:13;;;;;;;18.53;9.80;;;;;;;30.54;38.96;99996.47;4198957;28;20288;-74
2022/07/22 09:35:40;;;;;;;26.63;10.05;;;;;;;30.49;40.74;99993.78;4214966;28;20224;-73
2022/07/22 09:38:16;;;;;;;15.70;8.70;;;;;;;30.55;40.28;99998.09;4201927;28;20298;-76
2022/07/22 09:40:47;;;;;;;17.17;8.15;;;;;;;30.98;39.09;100006.53;4210345;28;20232;-74
2022/07/22 09:43:17;;;;;;;16.58;9.07;;;;;;;30.61;37.76;100010.69;4206180;28;20232;-75
2022/07/22 09:45:56;;;;;;;14.88;8.50;;;;;;;30.55;38.75;100003.59;4196358;28;21729;-75
2022/07/22 09:48:24;;;;;;;19.25;8.70;;;;;;;30.84;39.18;99995.41;4197573;28;21106;-75
2022/07/22 09:50:55;;;;;;;17.27;9.18;;;;;;;30.68;38.45;99991.94;4198077;28;21234;-77
2022/07/22 09:53:23;;;;;;;15.73;9.25;;;;;;;30.73;38.37;99980.09;4215255;28;22386;-74
2022/07/22 09:55:50;;;;;;;14.98;8.43;;;;;;;30.81;38.30;99989.63;4203319;28;21407;-74
2022/07/22 09:58:17;;;;;;;15.23;9.02;;;;;;;30.80;39.18;99990.75;4212296;28;21579;-75
2022/07/22 10:00:43;;;;;;;18.67;9.10;;;;;;;30.67;38.64;99989.47;4201740;28;22171;-76
2022/07/22 10:03:18;;;;;;;15.73;8.55;;;;;;;30.64;40.04;99990.88;4205519;28;23474;-75
2022/07/22 10:05:46;;;;;;;20.05;8.70;;;;;;;30.84;39.47;99991.84;4214172;28;20644;-75
2022/07/22 10:08:12;;;;;;;15.27;9.10;;;;;;;31.18;38.60;99986.22;4209442;28;25094;-75
2022/07/22 10:10:40;;;;;;;17.73;9.55;;;;;;;31.44;38.33;99983.16;4206228;28;20240;-75
2022/07/22 10:13:08;;;;;;;15.75;9.18;;;;;;;31.32;38.37;99995.38;4227585;28;20287;-75
2022/07/22 10:15:35;;;;;;;16.58;9.60;;;;;;;30.97;38.75;99988.38;4223605;28;20244;-75
2022/07/22 10:18:12;;;;;;;15.60;8.50;;;;;;;31.17;39.71;99987.34;4207264;28;20240;-74
2022/07/22 10:20:39;;;;;;;15.13;8.82;;;;;;;31.33;38.25;99985.22;4208870;28;20321;-74
2022/07/22 10:23:07;;;;;;;15.85;8.93;;;;;;;31.42;38.63;99977.97;4195259;28;20236;-75
2022/07/22 10:25:58;;;;;;;17.77;9.70;;;;;;;31.38;38.77;99982.41;4195599;28;21621;-74
2022/07/22 10:28:26;;;;;;;17.65;10.43;;;;;;;31.53;38.17;99987.72;4240889;28;20308;-73
2022/07/22 10:31:26;;;;;;;18.77;9.73;;;;;;;31.36;38.47;99981.88;4221102;28;20313;-74
2022/07/22 10:33:55;;;;;;;15.68;8.80;;;;;;;31.72;37.40;99979.47;4175149;28;20249;-74
2022/07/22 10:36:42;;;;;;;13.52;9.15;;;;;;;31.74;37.12;99984.69;4193753;28;20591;-74
2022/07/22 10:39:13;;;;;;;16.48;9.00;;;;;;;31.62;37.92;99979.63;4214839;28;20242;-75
2022/07/22 10:41:42;;;;;;;20.20;9.70;;;;;;;31.62;37.07;99981.56;4207536;28;20232;-75
2022/07/22 10:44:48;;;;;;;18.85;9.32;;;;;;;31.98;37.59;99976.38;4236673;28;20233;-74
2022/07/22 10:47:51;;;;;;;23.70;9.57;;;;;;;31.83;36.66;99982.91;4228827;28;20757;-75
2022/07/22 10:50:46;;;;;;;22.40;9.40;;;;;;;31.87;36.82;99978.44;4223528;28;20234;-75
2022/07/22 10:53:18;;;;;;;19.20;9.95;;;;;;;31.77;38.22;99973.06;4210982;28;20487;-75
2022/07/22 10:56:15;;;;;;;16.30;9.57;;;;;;;31.64;37.96;99973.84;4232222;28;20290;-76
2022/07/22 10:58:47;;;;;;;14.63;9.43;;;;;;;31.65;38.06;99972.72;4216616;28;20246;-76
2022/07/22 11:01:15;;;;;;;20.30;9.93;;;;;;;31.84;36.10;99973.50;4215819;28;20242;-75
2022/07/22 11:03:44;;;;;;;16.63;8.98;;;;;;;32.14;35.55;99976.94;4206270;28;20623;-76
2022/07/22 11:06:14;;;;;;;21.35;10.13;;;;;;;32.15;35.56;99979.41;4235984;28;21305;-75
2022/07/22 11:08:42;;;;;;;17.30;9.57;;;;;;;31.95;37.09;99969.53;4222359;28;20285;-77
2022/07/22 11:11:09;;;;;;;16.85;9.50;;;;;;;31.76;37.51;99971.44;4174135;28;20314;-76
2022/07/22 11:13:41;;;;;;;19.52;10.10;;;;;;;31.90;35.84;99972.34;4199097;28;20298;-75
2022/07/22 11:16:22;;;;;;;20.77;10.00;;;;;;;31.74;36.82;99973.69;4197555;28;20547;-78
2022/07/22 11:18:49;;;;;;;17.92;9.07;;;;;;;31.73;36.14;99972.88;4200680;28;21420;-74
2022/07/22 11:21:17;;;;;;;15.85;9.15;;;;;;;31.85;35.14;99968.84;4216626;28;20247;-74
2022/07/22 11:23:47;;;;;;;17.08;9.10;;;;;;;31.64;36.83;99971.09;4175764;28;20237;-75
2022/07/22 11:26:15;;;;;;;13.15;9.38;;;;;;;31.63;37.23;99972.19;4209148;28;21786;-74
2022/07/22 11:28:44;;;;;;;15.50;9.00;;;;;;;31.67;37.43;99967.72;4200428;28;20328;-74
2022/07/22 11:31:17;;;;;;;20.55;9.82;;;;;;;31.83;36.14;99963.63;4200776;28;22388;-78